Time;durP1;ratioP1;P1;durP2;ratioP2;P2;SDS_P1;SDS_P2;PMS_P1;PMS_P2;Temp;Humidity;BMP_temperature;BMP_pressure;BME280_temperature;BME280_humidity;BME280_pressure;Samples;Min_cycle;Max_cycle;Signal;HPM_P1;HPM_P2
2023/02/16 00:00:04;;;;;;;73.32;38.58;;;;;;;2.51;65.03;100840.09;5114780;27;20493;-76
2023/02/16 00:02:30;;;;;;;71.13;37.03;;;;;;;2.46;65.12;100822.59;5103224;27;20027;-77
2023/02/16 00:04:55;;;;;;;63.25;35.05;;;;;;;2.47;65.67;100830.63;5124485;27;20017;-77
2023/02/16 00:07:20;;;;;;;71.53;37.53;;;;;;;2.49;65.34;100827.63;5120387;27;20085;-77
2023/02/16 00:09:46;;;;;;;66.20;33.35;;;;;;;2.16;66.52;100834.72;5113958;28;20030;-77
2023/02/16 00:15:16;;;;;;;71.22;37.78;;;;;;;2.10;66.41;100834.63;5114257;28;20054;-77
2023/02/16 00:17:42;;;;;;;67.40;34.97;;;;;;;2.13;66.79;100830.53;5120592;27;20506;-77
2023/02/16 00:20:15;;;;;;;66.40;35.67;;;;;;;1.47;68.60;100839.03;5123010;27;20080;-77
2023/02/16 00:22:40;;;;;;;73.25;35.60;;;;;;;1.40;69.34;100837.25;5133123;27;20079;-77
2023/02/16 00:25:07;;;;;;;69.00;34.60;;;;;;;1.40;69.49;100833.66;5119153;27;20035;-76
2023/02/16 00:27:33;;;;;;;68.00;34.60;;;;;;;1.50;68.77;100831.13;5114875;27;20462;-77
2023/02/16 00:29:59;;;;;;;69.28;35.47;;;;;;;1.40;69.08;100839.16;5114443;27;20106;-77
2023/02/16 00:32:24;;;;;;;73.75;35.78;;;;;;;1.44;69.11;100831.25;5124555;27;20051;-77
2023/02/16 00:34:50;;;;;;;65.35;34.10;;;;;;;1.41;68.82;100832.56;5112545;28;20470;-77
2023/02/16 00:37:15;;;;;;;70.10;35.92;;;;;;;1.47;68.92;100828.88;5130267;27;20416;-77
2023/02/16 00:39:43;;;;;;;73.57;36.75;;;;;;;1.47;69.04;100833.53;5129912;27;20110;-77
2023/02/16 00:42:22;;;;;;;69.00;35.53;;;;;;;1.03;69.55;100829.22;5125201;27;20030;-77
2023/02/16 00:44:54;;;;;;;76.20;37.35;;;;;;;1.14;70.18;100824.78;5112309;27;20028;-77
2023/02/16 00:47:22;;;;;;;71.20;37.13;;;;;;;1.09;70.41;100824.66;5113336;28;20023;-77
2023/02/16 00:49:50;;;;;;;65.25;33.55;;;;;;;0.80;71.36;100828.09;5114590;27;20028;-77
2023/02/16 00:52:38;;;;;;;70.78;38.75;;;;;;;0.62;71.88;100812.50;5134003;27;20031;-77
2023/02/16 00:55:09;;;;;;;71.35;37.85;;;;;;;0.49;72.29;100830.03;5134098;27;20489;-78
2023/02/16 00:57:43;;;;;;;81.25;39.45;;;;;;;0.50;72.67;100823.44;5130962;27;20031;-77
2023/02/16 01:00:22;;;;;;;88.75;42.70;;;;;;;0.37;72.83;100821.75;5117960;27;20054;-77
2023/02/16 01:02:50;;;;;;;80.85;40.10;;;;;;;0.51;71.96;100822.38;5119696;27;20023;-77
2023/02/16 01:05:17;;;;;;;77.93;36.58;;;;;;;0.55;72.11;100823.59;5128721;27;20034;-78
2023/02/16 01:13:14;;;;;;;75.88;35.92;;;;;;;0.82;71.44;100819.56;5099559;27;20054;-78
2023/02/16 01:15:41;;;;;;;68.63;34.80;;;;;;;0.87;71.22;100808.69;5113742;28;20099;-77
2023/02/16 01:18:06;;;;;;;74.10;35.17;;;;;;;1.13;71.13;100809.31;5130261;27;20027;-77
2023/02/16 01:20:33;;;;;;;73.65;37.40;;;;;;;1.28;70.54;100806.09;5126858;27;20051;-77
2023/02/16 01:22:58;;;;;;;73.00;39.67;;;;;;;1.44;69.37;100804.50;5111976;28;20047;-77
2023/02/16 01:25:24;;;;;;;73.72;38.88;;;;;;;1.44;69.43;100803.69;5112725;27;20030;-77
2023/02/16 01:27:49;;;;;;;71.90;35.92;;;;;;;1.10;69.55;100798.78;5126968;27;20499;-77
2023/02/16 01:30:19;;;;;;;65.93;33.13;;;;;;;1.01;70.84;100794.69;5131958;27;20035;-77
2023/02/16 01:32:51;;;;;;;63.40;34.05;;;;;;;1.07;70.30;100797.34;5121034;27;20020;-77
2023/02/16 01:35:36;;;;;;;66.25;36.00;;;;;;;0.17;73.99;100801.91;5112378;28;20066;-78
2023/02/16 01:38:02;;;;;;;66.32;35.47;;;;;;;0.29;73.67;100808.31;5110529;28;20122;-78
2023/02/16 01:40:33;;;;;;;79.10;39.03;;;;;;;-0.03;74.80;100803.88;5116207;27;20034;-78
2023/02/16 01:43:20;;;;;;;75.47;35.53;;;;;;;-0.32;74.97;100800.81;5121679;27;20046;-78
2023/02/16 01:46:01;;;;;;;73.68;35.78;;;;;;;-0.41;75.57;100802.22;5111085;28;20148;-78
2023/02/16 01:48:27;;;;;;;;;;;;;;;-0.28;74.79;100803.94;5111357;28;20447;-78
2023/02/16 01:51:15;;;;;;;75.30;33.47;;;;;;;-0.37;74.91;100800.69;5105205;28;19934;-78
2023/02/16 01:53:51;;;;;;;72.68;34.50;;;;;;;-0.52;74.98;100803.78;5116737;27;20030;-78
2023/02/16 01:56:31;;;;;;;71.07;36.08;;;;;;;-0.68;76.19;100796.97;5114493;27;20019;-78
2023/02/16 01:59:02;;;;;;;69.13;33.30;;;;;;;-0.71;76.22;100801.06;5119743;27;20085;-78
2023/02/16 02:02:07;;;;;;;67.78;34.25;;;;;;;-0.70;76.15;100793.63;5129797;27;20023;-78
2023/02/16 02:07:55;;;;;;;69.63;33.20;;;;;;;-0.82;77.16;100789.94;5107168;27;20120;-78
2023/02/16 02:10:33;;;;;;;73.95;36.55;;;;;;;-1.00;77.10;100786.94;5111776;28;20035;-79
2023/02/16 02:13:13;;;;;;;73.82;34.42;;;;;;;-1.01;76.70;100790.75;5130638;27;20069;-79
2023/02/16 02:15:38;;;;;;;81.25;34.90;;;;;;;-1.06;76.92;100789.75;5131156;28;20019;-79
2023/02/16 02:18:04;;;;;;;71.45;34.50;;;;;;;-1.13;77.03;100792.56;5132009;27;20091;-78
2023/02/16 02:23:40;;;;;;;63.38;32.45;;;;;;;-1.17;77.19;100788.59;5114146;28;20054;-79
2023/02/16 02:26:36;;;;;;;68.95;33.97;;;;;;;-1.09;77.21;100790.22;5121860;28;20028;-78
2023/02/16 02:29:34;;;;;;;71.00;32.42;;;;;;;-1.05;76.73;100792.28;5111572;28;20039;-79
2023/02/16 02:32:17;;;;;;;68.70;31.92;;;;;;;-0.86;76.17;100789.56;5099700;28;20126;-78
2023/02/16 02:35:01;;;;;;;68.18;34.47;;;;;;;-0.59;75.55;100790.13;5124914;28;20028;-78
2023/02/16 02:37:45;;;;;;;67.75;35.05;;;;;;;-0.63;74.93;100793.56;5126203;28;20501;-77
2023/02/16 02:40:26;;;;;;;78.40;38.42;;;;;;;-0.63;74.90;100797.16;5132402;27;20031;-78
2023/02/16 02:43:09;;;;;;;77.43;40.88;;;;;;;-0.61;74.90;100802.41;5116475;27;20034;-78
2023/02/16 02:45:51;;;;;;;75.50;37.45;;;;;;;-0.44;74.61;100802.66;5110987;28;20035;-78
2023/02/16 02:48:17;;;;;;;70.95;35.90;;;;;;;-0.68;75.72;100796.97;5112430;28;20035;-77
2023/02/16 02:53:39;;;;;;;71.97;35.83;;;;;;;-0.31;74.29;100805.25;5136848;27;20056;-78
2023/02/16 03:01:49;;;;;;;61.15;30.35;;;;;;;-0.15;73.36;100800.22;5133962;27;20061;-79
2023/02/16 03:04:19;;;;;;;63.95;30.95;;;;;;;-0.48;74.36;100807.78;5116343;28;20016;-79
2023/02/16 03:06:50;;;;;;;62.60;29.85;;;;;;;-0.61;74.61;100808.75;5117410;28;20027;-79
2023/02/16 03:09:17;;;;;;;62.85;31.48;;;;;;;-0.41;74.39;100806.84;5115923;28;20516;-79
2023/02/16 03:14:39;;;;;;;65.30;31.92;;;;;;;-0.72;75.42;100806.75;5116865;27;20042;-78
2023/02/16 03:31:13;;;;;;;66.22;31.13;;;;;;;-1.00;75.13;100800.66;5118310;27;20421;-80
2023/02/16 03:33:40;;;;;;;57.10;28.33;;;;;;;-0.92;76.27;100791.28;5131494;27;20422;-79
2023/02/16 03:36:06;;;;;;;63.70;31.55;;;;;;;-0.82;74.52;100790.81;5117299;27;20523;-79
2023/02/16 03:38:32;;;;;;;66.82;33.63;;;;;;;-0.90;74.75;100796.56;5115462;27;20513;-79
2023/02/16 03:40:58;;;;;;;66.07;30.98;;;;;;;-1.10;75.83;100794.84;5115355;27;20054;-79
2023/02/16 03:43:25;;;;;;;69.25;33.65;;;;;;;-1.02;75.36;100789.06;5134927;27;20062;-79
2023/02/16 03:45:50;;;;;;;59.55;30.75;;;;;;;-0.83;74.58;100797.38;5116717;27;20034;-79
2023/02/16 03:48:16;;;;;;;64.15;29.20;;;;;;;-0.84;73.99;100787.44;5115092;28;20409;-78
2023/02/16 03:50:42;;;;;;;63.65;30.65;;;;;;;-0.84;72.91;100790.19;5119421;27;20401;-79
2023/02/16 03:53:07;;;;;;;75.28;34.72;;;;;;;-1.03;72.83;100789.28;5134764;27;20027;-79
2023/02/16 03:55:42;;;;;;;72.72;34.22;;;;;;;-1.15;74.19;100797.44;5135615;27;20025;-78
2023/02/16 03:58:10;;;;;;;74.28;36.30;;;;;;;-1.06;73.92;100790.59;5122491;27;20493;-80
2023/02/16 04:00:36;;;;;;;97.00;48.05;;;;;;;-1.14;74.02;100790.88;5126129;27;20032;-79
2023/02/16 04:03:03;;;;;;;97.07;50.85;;;;;;;-1.13;74.19;100792.56;5114933;28;20573;-79
2023/02/16 04:05:29;;;;;;;113.20;54.13;;;;;;;-1.08;74.44;100787.25;5123266;27;20028;-79
2023/02/16 04:07:54;;;;;;;106.70;51.25;;;;;;;-1.16;74.38;100785.59;5123368;27;20087;-79
2023/02/16 04:10:20;;;;;;;89.13;42.90;;;;;;;-1.31;75.21;100777.72;5115804;27;20494;-80
2023/02/16 04:12:45;;;;;;;83.78;41.03;;;;;;;-1.29;75.48;100785.72;5114830;27;20035;-80
2023/02/16 04:15:20;;;;;;;75.35;37.15;;;;;;;-1.08;74.11;100790.00;5120456;27;20031;-79
2023/02/16 04:17:46;;;;;;;60.05;31.70;;;;;;;-1.41;74.96;100788.34;5134769;27;20522;-81
2023/02/16 04:20:16;;;;;;;66.85;31.80;;;;;;;-1.88;76.67;100789.50;5125546;27;20517;-81
2023/02/16 04:22:42;;;;;;;62.40;29.77;;;;;;;-1.79;77.49;100776.34;5114238;28;20031;-80
2023/02/16 04:25:08;;;;;;;70.68;34.13;;;;;;;-1.71;78.35;100778.84;5131053;27;20416;-80
2023/02/16 04:27:34;;;;;;;83.07;41.10;;;;;;;-1.39;77.42;100780.72;5132890;27;20031;-78
2023/02/16 04:30:00;;;;;;;93.45;46.95;;;;;;;-1.38;76.40;100787.91;5117268;27;20028;-80
2023/02/16 04:32:25;;;;;;;103.95;51.78;;;;;;;-1.44;75.99;100789.63;5118093;27;20027;-80
2023/02/16 04:34:50;;;;;;;99.50;47.75;;;;;;;-1.34;75.97;100791.88;5118509;27;20039;-79
2023/02/16 04:37:16;;;;;;;100.55;46.20;;;;;;;-1.24;75.82;100787.78;5117351;27;20027;-79
2023/02/16 04:39:41;;;;;;;86.00;44.63;;;;;;;-1.08;75.20;100798.22;5128854;27;20162;-79
2023/02/16 04:42:07;;;;;;;84.18;41.22;;;;;;;-1.35;75.77;100794.84;5134435;27;20035;-79
2023/02/16 04:44:32;;;;;;;100.50;48.00;;;;;;;-1.20;75.34;100806.34;5116490;27;20019;-79
2023/02/16 04:46:58;;;;;;;77.47;38.53;;;;;;;-1.41;76.94;100808.38;5120397;27;20024;-80
2023/02/16 04:49:23;;;;;;;69.30;36.55;;;;;;;-1.44;76.74;100799.78;5126325;27;20214;-79
2023/02/16 04:51:49;;;;;;;152.38;71.80;;;;;;;-1.49;76.48;100805.94;5112397;28;20035;-80
2023/02/16 04:54:15;;;;;;;140.48;68.55;;;;;;;-1.58;76.71;100808.09;5113722;28;20035;-80
2023/02/16 04:56:43;;;;;;;112.20;56.78;;;;;;;-1.50;76.71;100804.25;5115042;27;20032;-80
2023/02/16 04:59:09;;;;;;;121.80;48.30;;;;;;;-1.45;76.45;100811.78;5114092;27;20050;-80
2023/02/16 05:01:34;;;;;;;86.90;40.25;;;;;;;-1.75;78.38;100810.53;5118831;27;20023;-79
2023/02/16 05:04:00;;;;;;;111.30;64.43;;;;;;;-1.61;78.46;100805.78;5127252;27;20024;-80
2023/02/16 05:06:25;;;;;;;138.50;73.05;;;;;;;-1.46;77.98;100810.13;5111492;28;20032;-78
2023/02/16 05:08:51;;;;;;;143.77;79.03;;;;;;;-1.45;77.40;100809.06;5117485;27;20080;-80
2023/02/16 05:16:45;;;;;;;169.52;77.65;;;;;;;-1.62;79.23;100819.75;5117452;27;20104;-80
2023/02/16 05:19:11;;;;;;;163.13;77.47;;;;;;;-1.73;79.76;100818.53;5128440;27;20034;-80
2023/02/16 05:21:36;;;;;;;168.82;83.90;;;;;;;-1.74;79.97;100816.84;5112277;27;20092;-81
2023/02/16 05:24:07;;;;;;;189.35;87.53;;;;;;;-1.91;80.64;100808.28;5129954;27;20055;-81
2023/02/16 05:26:34;;;;;;;220.80;105.28;;;;;;;-1.57;79.51;100815.28;5132330;27;20481;-80
2023/02/16 05:29:00;;;;;;;200.93;103.50;;;;;;;-1.56;78.48;100822.44;5131912;27;20478;-81
2023/02/16 05:31:27;;;;;;;220.18;122.00;;;;;;;-1.45;78.29;100815.41;5133272;27;20031;-80
2023/02/16 05:33:52;;;;;;;193.52;99.65;;;;;;;-1.33;77.76;100820.19;5128809;27;20028;-79
2023/02/16 05:36:18;;;;;;;111.65;57.15;;;;;;;-1.39;77.75;100818.31;5108992;28;20031;-79
2023/02/16 05:38:43;;;;;;;95.30;48.67;;;;;;;-1.51;77.58;100821.75;5110919;27;20119;-81
2023/02/16 05:41:10;;;;;;;163.43;77.47;;;;;;;-1.93;79.75;100824.13;5108354;28;20030;-80
2023/02/16 05:43:35;;;;;;;146.02;62.90;;;;;;;-2.03;81.25;100825.44;5113823;28;20045;-78
2023/02/16 05:46:08;;;;;;;106.03;50.30;;;;;;;-2.03;81.59;100830.91;5114109;28;20027;-80
2023/02/16 05:48:33;;;;;;;96.85;46.35;;;;;;;-2.04;82.00;100842.13;5110946;27;20059;-80
2023/02/16 05:50:59;;;;;;;112.35;54.92;;;;;;;-1.89;82.00;100839.06;5111728;28;20498;-81
2023/02/16 05:53:24;;;;;;;120.57;57.67;;;;;;;-1.77;81.08;100837.31;5120508;27;21023;-80
2023/02/16 05:55:50;;;;;;;111.68;53.60;;;;;;;-1.78;81.23;100835.66;5114001;27;20035;-81
2023/02/16 05:58:15;;;;;;;98.25;47.05;;;;;;;-1.80;82.27;100834.22;5112174;28;20027;-79
2023/02/16 06:00:41;;;;;;;99.28;44.95;;;;;;;-1.66;81.34;100844.03;5126912;27;20031;-80
2023/02/16 06:03:06;;;;;;;113.60;51.05;;;;;;;-1.43;80.85;100846.22;5115415;27;20042;-81
2023/02/16 06:05:32;;;;;;;121.80;54.17;;;;;;;-1.46;79.95;100843.06;5121963;27;20032;-82
2023/02/16 06:07:57;;;;;;;101.88;46.50;;;;;;;-1.43;80.56;100839.91;5108814;27;20042;-82
2023/02/16 06:10:23;;;;;;;95.97;45.88;;;;;;;-1.38;79.98;100845.53;5107220;28;20054;-80
2023/02/16 06:12:48;;;;;;;81.47;38.90;;;;;;;-1.05;78.18;100860.94;5108646;27;20443;-85
2023/02/16 06:15:14;;;;;;;89.95;40.17;;;;;;;-0.81;77.45;100847.44;5107384;28;20409;-82
2023/02/16 06:17:43;;;;;;;89.82;40.10;;;;;;;-0.65;77.75;100857.00;5107425;27;20019;-82
2023/02/16 06:20:09;;;;;;;89.30;38.30;;;;;;;-0.36;77.13;100854.59;5107927;28;20520;-78
2023/02/16 06:22:35;;;;;;;76.78;37.22;;;;;;;-0.50;78.30;100853.06;5110773;28;20532;-77
2023/02/16 06:25:01;;;;;;;72.10;37.10;;;;;;;-0.43;78.41;100859.31;5103476;28;20176;-80
2023/02/16 06:27:27;;;;;;;73.68;35.78;;;;;;;-0.40;78.88;100863.53;5113872;28;20498;-80
2023/02/16 06:29:53;;;;;;;71.90;36.42;;;;;;;-0.49;79.03;100855.56;5111983;28;20032;-81
2023/02/16 06:32:19;;;;;;;75.60;37.17;;;;;;;-0.26;79.33;100854.06;5106570;28;20066;-79
2023/02/16 06:34:45;;;;;;;77.10;38.05;;;;;;;-0.23;79.49;100869.28;5106865;28;20024;-80
2023/02/16 06:37:10;;;;;;;73.22;34.55;;;;;;;-0.02;78.88;100874.31;5108731;28;20023;-82
2023/02/16 06:39:36;;;;;;;75.45;37.67;;;;;;;-0.10;79.07;100871.88;5098468;28;20028;-77
2023/02/16 06:42:01;;;;;;;91.47;38.70;;;;;;;-0.19;79.79;100871.34;5103778;28;20024;-78
2023/02/16 06:44:27;;;;;;;73.95;39.17;;;;;;;-0.13;79.81;100865.97;5110060;28;20027;-79
2023/02/16 06:46:52;;;;;;;82.15;41.50;;;;;;;-0.13;80.19;100866.84;5104984;28;20032;-81
2023/02/16 06:49:20;;;;;;;90.55;39.45;;;;;;;-0.17;79.66;100858.19;5105243;28;20118;-80
2023/02/16 06:51:46;;;;;;;88.45;40.28;;;;;;;0.05;79.52;100877.00;5108740;28;20401;-77
2023/02/16 06:54:12;;;;;;;90.30;41.45;;;;;;;0.10;79.60;100873.56;5107419;28;20465;-79
2023/02/16 06:56:38;;;;;;;80.82;40.28;;;;;;;0.27;78.63;100880.09;5106846;28;20101;-76
2023/02/16 06:59:04;;;;;;;79.88;42.58;;;;;;;0.44;78.24;100884.13;5113756;28;20031;-78
2023/02/16 07:01:30;;;;;;;84.25;41.50;;;;;;;0.69;77.50;100878.47;5122577;27;20031;-74
2023/02/16 07:03:56;;;;;;;100.57;46.95;;;;;;;0.86;77.51;100881.41;5093281;28;20036;-74
2023/02/16 07:06:24;;;;;;;93.07;43.40;;;;;;;0.82;76.95;100875.53;5114373;28;20032;-72
2023/02/16 07:08:50;;;;;;;82.47;40.35;;;;;;;0.84;76.90;100872.50;5097957;28;20123;-73
2023/02/16 07:11:16;;;;;;;89.53;40.67;;;;;;;1.09;77.01;100868.75;5106302;28;20569;-74
2023/02/16 07:13:42;;;;;;;76.05;39.35;;;;;;;1.32;75.97;100867.94;5102602;28;20031;-74
2023/02/16 07:16:08;;;;;;;82.40;35.50;;;;;;;1.45;74.81;100874.28;5103926;28;20440;-74
2023/02/16 07:18:33;;;;;;;70.32;35.80;;;;;;;1.53;75.21;100879.47;5107559;28;20517;-73
2023/02/16 07:20:59;;;;;;;71.65;38.15;;;;;;;1.42;74.72;100878.38;5107473;28;20030;-73
2023/02/16 07:23:24;;;;;;;75.95;41.03;;;;;;;1.67;74.68;100871.75;5102562;28;20062;-76
2023/02/16 07:25:50;;;;;;;83.30;43.28;;;;;;;1.85;74.19;100875.47;5108264;28;20031;-76
2023/02/16 07:28:16;;;;;;;80.15;41.83;;;;;;;1.86;73.45;100875.22;5107444;28;20019;-76
2023/02/16 07:30:42;;;;;;;71.78;38.45;;;;;;;2.06;73.96;100871.22;5112867;28;20027;-74
2023/02/16 07:33:07;;;;;;;75.07;39.03;;;;;;;2.10;73.19;100870.50;5105448;28;20031;-77
2023/02/16 07:35:34;;;;;;;69.40;37.60;;;;;;;2.09;72.96;100871.59;5110460;28;20040;-78
2023/02/16 07:37:59;;;;;;;62.30;33.33;;;;;;;2.40;72.59;100868.59;5108492;28;20035;-77
2023/02/16 07:40:25;;;;;;;83.38;38.78;;;;;;;2.51;71.78;100855.81;5106175;27;20031;-74
2023/02/16 07:42:50;;;;;;;71.53;35.53;;;;;;;3.02;70.89;100863.38;5109846;27;20031;-75
2023/02/16 07:45:16;;;;;;;77.15;37.30;;;;;;;3.16;69.54;100866.66;5110197;28;20051;-74
2023/02/16 07:47:42;;;;;;;68.95;36.88;;;;;;;3.25;69.30;100875.34;5114319;27;20035;-75
2023/02/16 07:50:08;;;;;;;69.95;34.70;;;;;;;3.21;68.36;100870.34;5111570;27;20106;-78
2023/02/16 07:52:33;;;;;;;70.25;36.42;;;;;;;3.31;68.43;100868.81;5110344;28;20453;-77
2023/02/16 07:54:59;;;;;;;63.70;34.65;;;;;;;3.53;67.68;100874.41;5106317;28;20070;-75
2023/02/16 07:57:27;;;;;;;75.93;37.60;;;;;;;3.76;66.95;100878.06;5104798;28;20422;-75
2023/02/16 07:59:54;;;;;;;72.20;37.95;;;;;;;4.10;66.55;100872.44;5091638;28;20032;-81
2023/02/16 08:02:20;;;;;;;64.78;34.47;;;;;;;3.85;65.21;100884.00;5105559;28;20429;-76
2023/02/16 08:04:47;;;;;;;58.80;32.88;;;;;;;4.02;65.09;100884.81;5110908;28;20409;-75
2023/02/16 08:07:14;;;;;;;59.10;30.85;;;;;;;4.30;64.57;100885.72;5111914;27;20084;-77
2023/02/16 08:09:39;;;;;;;59.33;33.42;;;;;;;4.33;63.41;100879.66;5109872;28;20054;-79
2023/02/16 08:12:12;;;;;;;64.13;33.08;;;;;;;4.05;64.95;100884.28;5111212;28;20028;-79
2023/02/16 08:14:39;;;;;;;57.35;31.45;;;;;;;4.27;64.76;100882.63;5095558;28;20031;-76
2023/02/16 08:17:06;;;;;;;59.33;32.78;;;;;;;4.52;64.16;100879.31;5103910;28;20109;-78
2023/02/16 08:19:32;;;;;;;58.22;32.08;;;;;;;4.50;63.33;100882.34;5110714;27;20359;-77
2023/02/16 08:21:58;;;;;;;62.00;33.97;;;;;;;4.72;63.29;100878.69;5108794;28;20046;-73
2023/02/16 08:24:24;;;;;;;65.72;33.85;;;;;;;5.15;61.68;100872.47;5101722;28;20406;-75
2023/02/16 08:26:52;;;;;;;57.30;32.80;;;;;;;5.31;60.67;100878.97;5109573;28;20039;-73
2023/02/16 08:29:19;;;;;;;53.25;30.13;;;;;;;5.67;60.30;100875.63;5108409;27;20130;-74
2023/02/16 08:31:45;;;;;;;62.60;33.22;;;;;;;6.25;59.28;100872.88;5104314;28;20499;-76
2023/02/16 08:34:13;;;;;;;52.33;30.73;;;;;;;5.56;59.89;100864.44;5106402;27;20039;-73
2023/02/16 08:36:41;;;;;;;60.20;32.20;;;;;;;5.55;60.91;100864.69;5107148;27;20039;-76
2023/02/16 08:39:11;;;;;;;54.03;30.05;;;;;;;6.25;59.71;100866.50;5108872;27;20039;-78
2023/02/16 08:41:37;;;;;;;;;;;;;;;6.44;59.92;100867.69;5111049;28;20530;-75
2023/02/16 08:44:04;;;;;;;65.70;34.40;;;;;;;6.62;58.13;100861.88;5108898;28;19980;-76
2023/02/16 08:46:31;;;;;;;55.22;31.88;;;;;;;5.59;60.15;100866.66;5105745;27;20043;-75
2023/02/16 08:48:58;;;;;;;60.10;32.60;;;;;;;6.21;59.36;100860.66;5111376;27;20156;-76
2023/02/16 08:51:26;;;;;;;60.35;31.23;;;;;;;6.49;59.26;100866.03;5111728;28;20036;-78
2023/02/16 08:53:52;;;;;;;53.78;31.67;;;;;;;6.63;58.01;100866.34;5111448;27;20474;-75
2023/02/16 08:56:18;;;;;;;54.38;31.00;;;;;;;6.99;57.43;100850.56;5109611;27;20062;-79
2023/02/16 08:58:44;;;;;;;55.50;31.10;;;;;;;7.38;55.52;100845.53;5110527;28;20031;-80
2023/02/16 09:01:12;;;;;;;61.05;32.55;;;;;;;7.64;54.68;100849.13;5110696;27;20031;-74
2023/02/16 09:03:41;;;;;;;55.35;31.50;;;;;;;8.07;54.37;100847.88;5109319;28;20032;-77
2023/02/16 09:06:07;;;;;;;50.53;29.55;;;;;;;7.46;54.88;100850.56;5108794;28;20027;-80
2023/02/16 09:08:36;;;;;;;58.33;33.15;;;;;;;7.17;56.93;100848.31;5108647;28;20051;-77
2023/02/16 09:11:04;;;;;;;60.17;34.05;;;;;;;7.89;55.95;100847.41;5107576;28;20027;-73
2023/02/16 09:13:29;;;;;;;57.63;33.10;;;;;;;8.28;54.46;100829.97;5111723;28;20064;-79
2023/02/16 09:16:01;;;;;;;56.92;32.88;;;;;;;8.36;53.65;100836.88;5109751;27;20023;-79
2023/02/16 09:18:26;;;;;;;53.40;28.58;;;;;;;8.16;53.65;100835.03;5107659;27;20033;-79
2023/02/16 09:20:52;;;;;;;52.63;29.30;;;;;;;8.24;53.51;100840.03;5110502;27;20024;-79
2023/02/16 09:23:19;;;;;;;54.22;30.88;;;;;;;8.47;53.44;100840.47;5110348;28;20044;-78
2023/02/16 09:25:44;;;;;;;51.13;29.30;;;;;;;8.73;52.78;100836.72;5112169;28;20134;-79
2023/02/16 09:28:10;;;;;;;48.67;28.23;;;;;;;8.53;51.65;100830.16;5111370;28;20118;-78
2023/02/16 09:30:38;;;;;;;49.70;29.13;;;;;;;8.94;51.34;100831.84;5112394;27;20027;-78
2023/02/16 09:33:04;;;;;;;44.20;26.48;;;;;;;8.29;51.51;100828.84;5109721;28;20167;-78
2023/02/16 09:35:29;;;;;;;54.70;27.25;;;;;;;8.75;50.49;100828.88;5109856;28;20507;-76
2023/02/16 09:37:56;;;;;;;49.80;29.98;;;;;;;8.96;50.63;100826.78;5107775;28;20020;-76
2023/02/16 09:40:23;;;;;;;49.58;28.05;;;;;;;9.08;50.52;100820.81;5109012;28;20034;-80
2023/02/16 09:43:28;;;;;;;45.40;27.60;;;;;;;9.09;50.09;100816.91;5110307;28;20019;-85
2023/02/16 09:45:57;;;;;;;46.47;26.58;;;;;;;8.76;50.22;100811.84;5084519;28;20050;-87
2023/02/16 09:48:34;;;;;;;43.70;25.63;;;;;;;9.31;49.79;100808.06;5109352;28;20023;-83
2023/02/16 09:51:03;;;;;;;41.65;25.02;;;;;;;9.38;48.78;100808.53;5108659;27;20515;-77
2023/02/16 09:53:40;;;;;;;41.80;24.50;;;;;;;9.15;50.00;100804.59;5111597;27;20501;-84
2023/02/16 09:56:21;;;;;;;44.38;24.15;;;;;;;9.43;48.20;100804.06;5109224;28;20038;-82
2023/02/16 09:58:58;;;;;;;36.65;22.63;;;;;;;9.03;48.01;100807.75;5108766;28;20084;-78
2023/02/16 10:01:55;;;;;;;34.72;22.55;;;;;;;9.60;47.20;100803.59;5109954;28;20028;-78
2023/02/16 10:04:42;;;;;;;47.58;28.52;;;;;;;9.85;46.88;100805.25;5104444;28;20036;-77
2023/02/16 10:07:44;;;;;;;90.43;52.60;;;;;;;9.96;46.98;100790.03;5112011;27;20502;-81
2023/02/16 10:10:15;;;;;;;67.03;37.95;;;;;;;9.83;46.29;100787.97;5110659;27;20033;-82
2023/02/16 10:12:48;;;;;;;40.13;22.48;;;;;;;9.58;46.48;100795.50;5109846;28;20038;-81
2023/02/16 10:15:18;;;;;;;254.40;159.00;;;;;;;9.77;47.09;100786.34;5110576;28;20093;-78
2023/02/16 10:17:47;;;;;;;178.02;107.45;;;;;;;10.07;46.07;100784.31;5105879;28;20019;-81
2023/02/16 10:20:32;;;;;;;210.75;132.07;;;;;;;10.25;46.77;100780.69;5110591;28;20024;-80
2023/02/16 10:23:15;;;;;;;120.63;73.90;;;;;;;10.51;45.45;100782.34;5111923;28;20046;-82
2023/02/16 10:25:53;;;;;;;59.60;35.88;;;;;;;10.61;44.27;100776.59;5112444;28;20035;-84
2023/02/16 10:28:35;;;;;;;65.05;41.53;;;;;;;10.79;44.71;100769.31;5110567;28;20493;-82
2023/02/16 10:31:10;;;;;;;42.80;24.20;;;;;;;10.86;44.09;100771.72;5100791;28;20028;-78
2023/02/16 10:34:01;;;;;;;37.17;20.92;;;;;;;10.88;42.81;100765.81;5110705;28;20028;-76
2023/02/16 10:36:35;;;;;;;29.48;19.42;;;;;;;10.87;42.96;100767.78;5102470;28;20031;-79
2023/02/16 10:39:25;;;;;;;30.90;20.90;;;;;;;10.68;43.48;100765.00;5100229;28;20422;-73
2023/02/16 10:42:14;;;;;;;33.05;21.10;;;;;;;10.82;43.64;100757.50;5096039;28;20065;-76
2023/02/16 10:44:47;;;;;;;52.08;21.45;;;;;;;10.78;43.01;100756.47;5106464;28;20409;-78
2023/02/16 10:47:29;;;;;;;32.08;19.70;;;;;;;10.50;43.36;100747.94;5105506;28;20122;-77
2023/02/16 10:49:55;;;;;;;34.47;20.58;;;;;;;10.59;42.68;100744.44;5102793;28;20032;-79
2023/02/16 10:52:22;;;;;;;31.65;20.50;;;;;;;10.65;43.39;100746.03;5101173;28;20081;-74
2023/02/16 10:54:47;;;;;;;33.55;20.23;;;;;;;11.32;42.42;100738.44;5105813;28;20039;-78
2023/02/16 10:57:33;;;;;;;35.47;20.58;;;;;;;11.41;40.36;100733.81;5111938;27;20112;-80
2023/02/16 11:00:03;;;;;;;35.33;19.30;;;;;;;11.17;40.67;100729.19;5105459;28;20049;-79
2023/02/16 11:02:41;;;;;;;32.55;20.55;;;;;;;11.37;40.61;100732.72;5105531;28;20524;-77
2023/02/16 11:05:27;;;;;;;42.55;25.55;;;;;;;11.20;42.32;100724.94;5107056;28;20039;-80
2023/02/16 11:08:00;;;;;;;40.75;25.25;;;;;;;11.15;42.27;100717.44;5106896;28;20118;-73
2023/02/16 11:10:49;;;;;;;35.75;24.83;;;;;;;11.26;41.30;100718.09;5108348;28;20092;-72
2023/02/16 11:13:31;;;;;;;38.08;24.50;;;;;;;11.55;40.56;100714.16;5107371;27;20032;-73
2023/02/16 11:16:08;;;;;;;36.03;22.80;;;;;;;11.85;39.43;100711.03;5109713;28;20421;-78
2023/02/16 11:18:45;;;;;;;35.80;20.60;;;;;;;12.03;38.90;100715.72;5108807;27;20027;-74
2023/02/16 11:21:12;;;;;;;32.38;20.52;;;;;;;11.93;39.56;100704.69;5104863;27;21104;-80
2023/02/16 11:23:39;;;;;;;41.80;21.02;;;;;;;11.94;39.12;100710.00;5108808;27;20051;-82
2023/02/16 11:26:11;;;;;;;34.15;20.77;;;;;;;11.72;40.19;100698.72;5107467;28;20065;-78
2023/02/16 11:28:41;;;;;;;39.88;22.55;;;;;;;11.72;39.39;100701.53;5104427;28;20071;-78
2023/02/16 11:31:32;;;;;;;50.88;22.67;;;;;;;11.34;39.80;100695.00;5102998;28;20023;-82
2023/02/16 11:34:00;;;;;;;46.13;29.40;;;;;;;11.74;40.40;100690.81;5105082;28;20077;-83
2023/02/16 11:37:00;;;;;;;37.65;22.88;;;;;;;12.14;38.48;100679.84;5114435;27;20026;-84
2023/02/16 11:39:30;;;;;;;35.08;21.75;;;;;;;11.58;38.94;100679.91;5113420;28;20038;-76
2023/02/16 11:42:01;;;;;;;;;;;;;;;11.56;39.16;100676.59;5114503;28;20043;-78
2023/02/16 11:44:40;;;;;;;42.40;23.25;;;;;;;11.87;38.36;100672.31;5112975;28;20412;-73
2023/02/16 11:47:28;;;;;;;79.85;44.10;;;;;;;12.27;38.40;100660.50;5113012;27;20043;-77
2023/02/16 11:50:12;;;;;;;38.60;23.50;;;;;;;12.56;38.17;100665.66;5095609;28;20039;-80
2023/02/16 11:52:38;;;;;;;35.78;21.52;;;;;;;12.36;37.46;100658.59;5105226;28;20024;-82
2023/02/16 11:55:17;;;;;;;45.00;23.92;;;;;;;12.40;37.67;100654.00;5110341;28;20101;-82
2023/02/16 11:57:43;;;;;;;30.58;20.38;;;;;;;12.13;37.68;100657.75;5110517;28;20027;-81
2023/02/16 12:00:21;;;;;;;38.15;20.08;;;;;;;12.36;37.86;100650.19;5112954;28;20027;-82
2023/02/16 12:03:20;;;;;;;35.30;20.58;;;;;;;12.50;38.13;100647.31;5113208;28;20058;-82
2023/02/16 12:06:06;;;;;;;30.35;19.52;;;;;;;12.62;36.63;100639.16;5112943;28;20027;-82
2023/02/16 12:08:32;;;;;;;31.90;19.35;;;;;;;12.74;37.44;100649.78;5112599;28;20028;-82
2023/02/16 12:11:12;;;;;;;37.92;19.80;;;;;;;12.33;37.70;100636.78;5131858;27;20034;-79